Orla, Texas
Current Conditions -  °F | °C
As of 9:35 AM on Sunday 21 Dec 2014 (Local Time) from KPEQ Reporting Station
Clear Clear  
Wind Chill: 42°   Ceiling: Unl
Heat Index: 42°   Visibility: 10mi
Dew Point: 29°   Wind: 0mph
Humidity: 61%   Direction: NA
Pressure: 30"   Gusts: NA
Location:  31.83°N, 103.91°W
Report Text: KPEQ 211535Z AUTO 00000KT 10SM CLR 05/M02 A3000 RMK AO2 T00531016
Loading
Personal Weather Stations






























Interactive Weather Map New forecast layout! Learn more

10-Day Weather Forecast

Advertisements
Track Severe Weather on mobile